»·PEaware :: N3539W 1L1-2O7

N3539W :: 1L1-2O7

FLIGHT INFORMATION

Flight Status: Arrived
Operator: Privately registered:
United States
More flights under this callsign
Pilot: Joerg P. (23850)
Aircraft: PIPER PA-32 SARATOGA
(PA32)
More flights by this aircraft type
Origin: 1L1 Lincoln Co
United States
Destination: 2O7 Independence
United States
More flights between these airports :: More routes between these airports
Route:
File this flight plan on PilotEdge
Remarks:
Altitude:
(Current/Filed)
10,500ft
Speed:
(Current/Filed)
130kts
Departed: 12-Sep-20 04:32 PM
Arrived: 12-Sep-20 06:09 PM
Distance/Time
Traveled:
190nm/1:37
Distance/Time
To Go:
Arrived

Flight Plot

Page will automatically refresh every two minutes.


Map Options




Map Legend


Flown Route
Filed Route
Departure Airport
Arrival Airport
Navaid (VOR, NDB)
Fix

Horizontal Profiles

Position Reports

Time Latitude Longitude Heading Altitude Ground
Speed
12-Sep-20 16:29 37.781219 -114.421407 103 4796ft 0kts
12-Sep-20 16:30 37.781219 -114.421407 103 4796ft 0kts
12-Sep-20 16:31 37.790556 -114.420765 355 4860ft 98kts
12-Sep-20 16:32 37.820699 -114.424152 337 5557ft 120kts
12-Sep-20 16:33 37.844342 -114.452146 303 6264ft 119kts
12-Sep-20 16:34 37.853740 -114.490770 262 6952ft 116kts
12-Sep-20 16:35 37.846785 -114.530985 259 7564ft 118kts
12-Sep-20 16:36 37.849095 -114.571924 287 8184ft 119kts
12-Sep-20 16:37 37.861367 -114.609665 282 8881ft 114kts
12-Sep-20 16:38 37.867292 -114.649251 267 9507ft 113kts
12-Sep-20 16:39 37.868676 -114.689007 269 10158ft 110kts
12-Sep-20 16:40 37.868730 -114.729262 267 10589ft 122kts
12-Sep-20 16:41 37.871636 -114.774737 275 10647ft 135kts
12-Sep-20 16:42 37.874433 -114.823401 274 10583ft 143kts
12-Sep-20 16:43 37.882173 -114.873004 281 10488ft 142kts
12-Sep-20 16:44 37.889027 -114.921892 285 10501ft 141kts
12-Sep-20 16:45 37.897682 -114.969342 274 10605ft 136kts
12-Sep-20 16:46 37.899653 -115.018231 269 10610ft 139kts
12-Sep-20 16:47 37.901357 -115.067324 268 10636ft 140kts
12-Sep-20 16:48 37.903806 -115.116591 280 10642ft 140kts
12-Sep-20 16:49 37.913941 -115.164325 291 10673ft 139kts
12-Sep-20 16:50 37.932404 -115.207621 292 10667ft 140kts
12-Sep-20 16:51 37.943771 -115.254201 296 10649ft 140kts
12-Sep-20 16:52 37.967894 -115.291197 304 10696ft 140kts
12-Sep-20 16:53 37.976437 -115.338884 272 10673ft 140kts
12-Sep-20 16:55 37.980435 -115.388149 271 10667ft 141kts
12-Sep-20 16:56 37.978706 -115.437795 264 10696ft 139kts
12-Sep-20 16:57 37.965380 -115.485048 257 10604ft 143kts
12-Sep-20 16:58 37.960172 -115.534882 269 10552ft 144kts
12-Sep-20 16:59 37.962053 -115.585191 272 10533ft 141kts
12-Sep-20 17:00 37.961289 -115.634056 269 10645ft 137kts
12-Sep-20 17:01 37.962431 -115.683336 271 10603ft 142kts
12-Sep-20 17:02 37.960287 -115.732456 253 10635ft 142kts
12-Sep-20 17:03 37.951811 -115.780966 263 10644ft 141kts
12-Sep-20 17:04 37.956974 -115.829712 287 10614ft 140kts
12-Sep-20 17:05 37.964694 -115.877854 267 10616ft 141kts
12-Sep-20 17:06 37.964593 -115.927579 270 10609ft 141kts
12-Sep-20 17:07 37.963564 -115.977483 270 10603ft 141kts
12-Sep-20 17:08 37.965182 -116.027153 264 10596ft 140kts
12-Sep-20 17:09 37.964188 -116.076925 269 10576ft 141kts
12-Sep-20 17:09 37.963257 -116.118413 272 10569ft 141kts
12-Sep-20 17:11 37.962186 -116.176200 264 10602ft 140kts
12-Sep-20 17:12 37.954269 -116.224950 263 10584ft 142kts
12-Sep-20 17:12 37.949177 -116.265977 264 10612ft 141kts
12-Sep-20 17:13 37.946110 -116.315678 267 10596ft 142kts
12-Sep-20 17:15 37.943329 -116.373861 266 10611ft 141kts
12-Sep-20 17:15 37.944781 -116.415215 274 10614ft 141kts
12-Sep-20 17:16 37.946327 -116.465115 267 10597ft 143kts
12-Sep-20 17:17 37.947426 -116.515089 282 10600ft 142kts
12-Sep-20 17:18 37.957673 -116.563416 287 10597ft 142kts
12-Sep-20 17:19 37.966845 -116.612707 280 10533ft 145kts
12-Sep-20 17:20 37.971834 -116.663570 275 10465ft 145kts
12-Sep-20 17:21 37.976670 -116.714398 289 10358ft 147kts
12-Sep-20 17:22 37.978365 -116.765013 264 10385ft 141kts
12-Sep-20 17:23 37.974225 -116.814172 257 10461ft 140kts
12-Sep-20 17:24 37.969277 -116.863945 267 10451ft 143kts
12-Sep-20 17:25 37.965859 -116.914197 261 10468ft 143kts
12-Sep-20 17:26 37.967539 -116.964546 266 10466ft 144kts
12-Sep-20 17:27 37.965987 -117.015328 264 10487ft 143kts
12-Sep-20 17:28 37.960885 -117.065321 262 10491ft 144kts
12-Sep-20 17:29 37.950736 -117.114140 247 10494ft 144kts
12-Sep-20 17:30 37.933843 -117.159786 234 10504ft 143kts
12-Sep-20 17:31 37.914369 -117.203524 242 10506ft 144kts
12-Sep-20 17:32 37.896162 -117.248813 238 10476ft 144kts
12-Sep-20 17:33 37.874165 -117.291573 233 10469ft 141kts
12-Sep-20 17:34 37.850162 -117.330749 231 10488ft 142kts
12-Sep-20 17:35 37.828149 -117.372284 234 10506ft 142kts
12-Sep-20 17:36 37.805653 -117.413306 230 10526ft 141kts
12-Sep-20 17:37 37.781753 -117.452802 229 10543ft 141kts
12-Sep-20 17:38 37.757709 -117.491808 230 10578ft 141kts
12-Sep-20 17:39 37.734669 -117.532862 228 10518ft 143kts
12-Sep-20 17:40 37.709718 -117.572243 228 10480ft 143kts
12-Sep-20 17:41 37.684631 -117.610770 228 10521ft 140kts
12-Sep-20 17:42 37.657468 -117.647031 224 10493ft 141kts
12-Sep-20 17:43 37.632703 -117.686121 228 10477ft 141kts
12-Sep-20 17:44 37.600999 -117.714222 212 10496ft 140kts
12-Sep-20 17:45 37.572763 -117.748053 225 10511ft 142kts
12-Sep-20 17:46 37.544110 -117.782002 219 10492ft 142kts
12-Sep-20 17:47 37.517381 -117.818112 224 10541ft 140kts
12-Sep-20 17:48 37.490543 -117.854079 227 10540ft 141kts
12-Sep-20 17:49 37.465787 -117.892915 227 10521ft 143kts
12-Sep-20 17:50 37.440882 -117.931935 229 10523ft 141kts
12-Sep-20 17:51 37.417488 -117.973111 226 10415ft 145kts
12-Sep-20 17:52 37.393498 -118.013158 230 10442ft 141kts
12-Sep-20 17:53 37.363591 -118.044997 217 10432ft 139kts
12-Sep-20 17:54 37.334092 -118.076855 218 10433ft 141kts
12-Sep-20 17:55 37.303728 -118.108515 217 10427ft 140kts
12-Sep-20 17:56 37.274554 -118.141158 219 10430ft 142kts
12-Sep-20 17:57 37.243933 -118.173562 213 10331ft 147kts
12-Sep-20 17:58 37.208662 -118.206725 216 9656ft 163kts
12-Sep-20 17:59 37.169768 -118.235513 200 8988ft 161kts
12-Sep-20 18:00 37.125929 -118.244506 180 8299ft 160kts
12-Sep-20 18:01 37.082215 -118.244566 177 7700ft 157kts
12-Sep-20 18:02 37.038987 -118.238267 175 7102ft 158kts
12-Sep-20 18:03 36.995346 -118.237044 175 6537ft 155kts
12-Sep-20 18:04 36.952261 -118.231853 174 5761ft 160kts
12-Sep-20 18:05 36.908307 -118.226819 164 5014ft 148kts
12-Sep-20 18:06 36.870012 -118.219424 172 5020ft 136kts
12-Sep-20 18:07 36.835640 -118.215008 156 4273ft 100kts
12-Sep-20 18:08 36.816308 -118.204931 159 3902ft 34kts
12-Sep-20 18:09 36.810195 -118.202081 223 3899ft 14kts
12-Sep-20 18:10 36.809995 -118.202496 249 3901ft 0kts

Navigation Log

Ident Type
Flight plan parsing failed, navigation log unavailable